sensor_id;sensor_type;location;lat;lon;timestamp;P1;durP1;ratioP1;P2;durP2;ratioP2
1577;SDS011;57623;53.608;10.004;2024-02-23T00:01:15;0.77;;;0.67;;
1577;SDS011;57623;53.608;10.004;2024-02-23T00:03:43;0.90;;;0.70;;
1577;SDS011;57623;53.608;10.004;2024-02-23T00:06:11;1.17;;;0.70;;
1577;SDS011;57623;53.608;10.004;2024-02-23T00:08:41;1.27;;;0.60;;
1577;SDS011;57623;53.608;10.004;2024-02-23T00:11:09;2.00;;;1.00;;
1577;SDS011;57623;53.608;10.004;2024-02-23T00:13:37;0.90;;;0.60;;
1577;SDS011;57623;53.608;10.004;2024-02-23T00:16:05;1.27;;;0.90;;
1577;SDS011;57623;53.608;10.004;2024-02-23T00:18:35;1.10;;;1.00;;
1577;SDS011;57623;53.608;10.004;2024-02-23T00:21:02;1.63;;;0.90;;
1577;SDS011;57623;53.608;10.004;2024-02-23T00:23:30;1.43;;;1.33;;
1577;SDS011;57623;53.608;10.004;2024-02-23T00:25:58;1.20;;;1.10;;
1577;SDS011;57623;53.608;10.004;2024-02-23T00:28:26;1.60;;;1.40;;
1577;SDS011;57623;53.608;10.004;2024-02-23T00:30:54;1.23;;;1.13;;
1577;SDS011;57623;53.608;10.004;2024-02-23T00:33:23;2.20;;;1.63;;
1577;SDS011;57623;53.608;10.004;2024-02-23T00:35:53;2.23;;;1.40;;
1577;SDS011;57623;53.608;10.004;2024-02-23T00:38:21;1.63;;;1.53;;
1577;SDS011;57623;53.608;10.004;2024-02-23T00:40:49;1.27;;;1.17;;
1577;SDS011;57623;53.608;10.004;2024-02-23T00:43:18;1.20;;;1.10;;
1577;SDS011;57623;53.608;10.004;2024-02-23T00:45:47;3.00;;;1.10;;
1577;SDS011;57623;53.608;10.004;2024-02-23T00:48:17;1.00;;;0.90;;
1577;SDS011;57623;53.608;10.004;2024-02-23T00:50:46;1.30;;;1.20;;
1577;SDS011;57623;53.608;10.004;2024-02-23T00:53:15;1.20;;;1.10;;
1577;SDS011;57623;53.608;10.004;2024-02-23T00:55:44;0.77;;;0.70;;
1577;SDS011;57623;53.608;10.004;2024-02-23T00:58:12;3.20;;;0.43;;
1577;SDS011;57623;53.608;10.004;2024-02-23T01:00:42;0.60;;;0.60;;
1577;SDS011;57623;53.608;10.004;2024-02-23T01:03:10;0.80;;;0.50;;
1577;SDS011;57623;53.608;10.004;2024-02-23T01:05:38;0.50;;;0.50;;
1577;SDS011;57623;53.608;10.004;2024-02-23T01:08:06;1.43;;;0.60;;
1577;SDS011;57623;53.608;10.004;2024-02-23T01:10:35;0.50;;;0.50;;
1577;SDS011;57623;53.608;10.004;2024-02-23T01:13:03;0.70;;;0.50;;
1577;SDS011;57623;53.608;10.004;2024-02-23T01:15:32;0.60;;;0.60;;
1577;SDS011;57623;53.608;10.004;2024-02-23T01:18:00;0.60;;;0.60;;
1577;SDS011;57623;53.608;10.004;2024-02-23T01:20:28;0.40;;;0.40;;
1577;SDS011;57623;53.608;10.004;2024-02-23T01:22:56;0.60;;;0.60;;
1577;SDS011;57623;53.608;10.004;2024-02-23T01:25:24;0.67;;;0.60;;
1577;SDS011;57623;53.608;10.004;2024-02-23T01:27:54;0.50;;;0.50;;
1577;SDS011;57623;53.608;10.004;2024-02-23T01:30:22;1.27;;;0.60;;
1577;SDS011;57623;53.608;10.004;2024-02-23T01:32:50;0.60;;;0.50;;
1577;SDS011;57623;53.608;10.004;2024-02-23T01:35:18;0.50;;;0.50;;
1577;SDS011;57623;53.608;10.004;2024-02-23T01:37:46;0.80;;;0.60;;
1577;SDS011;57623;53.608;10.004;2024-02-23T01:40:14;0.50;;;0.50;;
1577;SDS011;57623;53.608;10.004;2024-02-23T01:42:42;0.70;;;0.60;;
1577;SDS011;57623;53.608;10.004;2024-02-23T01:45:12;0.60;;;0.60;;
1577;SDS011;57623;53.608;10.004;2024-02-23T01:47:40;0.70;;;0.60;;
1577;SDS011;57623;53.608;10.004;2024-02-23T01:50:08;0.50;;;0.50;;
1577;SDS011;57623;53.608;10.004;2024-02-23T01:52:39;0.40;;;0.40;;
1577;SDS011;57623;53.608;10.004;2024-02-23T01:55:07;0.53;;;0.53;;
1577;SDS011;57623;53.608;10.004;2024-02-23T01:57:35;0.40;;;0.40;;
1577;SDS011;57623;53.608;10.004;2024-02-23T02:00:17;0.70;;;0.70;;
1577;SDS011;57623;53.608;10.004;2024-02-23T02:02:47;0.50;;;0.50;;
1577;SDS011;57623;53.608;10.004;2024-02-23T02:05:15;0.30;;;0.30;;
1577;SDS011;57623;53.608;10.004;2024-02-23T02:07:44;0.30;;;0.30;;
1577;SDS011;57623;53.608;10.004;2024-02-23T02:10:13;1.60;;;0.40;;
1577;SDS011;57623;53.608;10.004;2024-02-23T02:12:41;0.50;;;0.40;;
1577;SDS011;57623;53.608;10.004;2024-02-23T02:15:09;0.50;;;0.30;;
1577;SDS011;57623;53.608;10.004;2024-02-23T02:17:38;0.50;;;0.30;;
1577;SDS011;57623;53.608;10.004;2024-02-23T02:20:07;0.30;;;0.30;;
1577;SDS011;57623;53.608;10.004;2024-02-23T02:22:40;0.53;;;0.30;;
1577;SDS011;57623;53.608;10.004;2024-02-23T02:25:08;0.50;;;0.30;;
1577;SDS011;57623;53.608;10.004;2024-02-23T02:27:36;0.40;;;0.30;;
1577;SDS011;57623;53.608;10.004;2024-02-23T02:30:04;3.27;;;0.50;;
1577;SDS011;57623;53.608;10.004;2024-02-23T02:32:33;1.73;;;0.37;;
1577;SDS011;57623;53.608;10.004;2024-02-23T02:35:05;0.40;;;0.30;;
1577;SDS011;57623;53.608;10.004;2024-02-23T02:37:33;2.13;;;0.30;;
1577;SDS011;57623;53.608;10.004;2024-02-23T02:40:02;2.23;;;0.30;;
1577;SDS011;57623;53.608;10.004;2024-02-23T02:42:31;0.33;;;0.30;;
1577;SDS011;57623;53.608;10.004;2024-02-23T02:44:59;0.30;;;0.30;;
1577;SDS011;57623;53.608;10.004;2024-02-23T02:47:28;0.30;;;0.30;;
1577;SDS011;57623;53.608;10.004;2024-02-23T02:49:57;2.00;;;0.40;;
1577;SDS011;57623;53.608;10.004;2024-02-23T02:52:26;0.50;;;0.30;;
1577;SDS011;57623;53.608;10.004;2024-02-23T02:54:54;0.40;;;0.30;;
1577;SDS011;57623;53.608;10.004;2024-02-23T02:57:22;0.40;;;0.30;;
1577;SDS011;57623;53.608;10.004;2024-02-23T02:59:51;0.40;;;0.30;;
1577;SDS011;57623;53.608;10.004;2024-02-23T03:02:19;0.40;;;0.30;;
1577;SDS011;57623;53.608;10.004;2024-02-23T03:04:47;0.40;;;0.30;;
1577;SDS011;57623;53.608;10.004;2024-02-23T03:07:15;0.40;;;0.30;;
1577;SDS011;57623;53.608;10.004;2024-02-23T03:09:45;0.40;;;0.40;;
1577;SDS011;57623;53.608;10.004;2024-02-23T03:12:15;1.37;;;0.40;;
1577;SDS011;57623;53.608;10.004;2024-02-23T03:14:43;0.50;;;0.43;;
1577;SDS011;57623;53.608;10.004;2024-02-23T03:17:11;0.40;;;0.30;;
1577;SDS011;57623;53.608;10.004;2024-02-23T03:19:39;0.63;;;0.40;;
1577;SDS011;57623;53.608;10.004;2024-02-23T03:22:07;0.50;;;0.40;;
1577;SDS011;57623;53.608;10.004;2024-02-23T03:24:35;2.20;;;0.40;;
1577;SDS011;57623;53.608;10.004;2024-02-23T03:27:05;1.00;;;0.40;;
1577;SDS011;57623;53.608;10.004;2024-02-23T03:29:33;0.97;;;0.50;;
1577;SDS011;57623;53.608;10.004;2024-02-23T03:32:01;0.80;;;0.70;;
1577;SDS011;57623;53.608;10.004;2024-02-23T03:34:29;2.03;;;0.70;;
1577;SDS011;57623;53.608;10.004;2024-02-23T03:36:57;0.77;;;0.70;;
1577;SDS011;57623;53.608;10.004;2024-02-23T03:39:27;0.73;;;0.70;;
1577;SDS011;57623;53.608;10.004;2024-02-23T03:41:56;1.07;;;0.97;;
1577;SDS011;57623;53.608;10.004;2024-02-23T03:44:25;2.50;;;0.83;;
1577;SDS011;57623;53.608;10.004;2024-02-23T03:46:53;0.90;;;0.73;;
1577;SDS011;57623;53.608;10.004;2024-02-23T03:49:21;1.20;;;1.10;;
1577;SDS011;57623;53.608;10.004;2024-02-23T03:51:49;1.00;;;0.90;;
1577;SDS011;57623;53.608;10.004;2024-02-23T03:54:17;3.00;;;1.00;;
1577;SDS011;57623;53.608;10.004;2024-02-23T03:56:45;1.10;;;1.10;;
1577;SDS011;57623;53.608;10.004;2024-02-23T03:59:13;5.00;;;1.33;;
1577;SDS011;57623;53.608;10.004;2024-02-23T04:01:42;2.20;;;0.97;;
1577;SDS011;57623;53.608;10.004;2024-02-23T04:04:10;1.30;;;0.70;;
1577;SDS011;57623;53.608;10.004;2024-02-23T04:06:38;1.37;;;0.90;;
1577;SDS011;57623;53.608;10.004;2024-02-23T04:09:06;2.30;;;0.87;;
1577;SDS011;57623;53.608;10.004;2024-02-23T04:11:35;1.33;;;1.00;;
1577;SDS011;57623;53.608;10.004;2024-02-23T04:14:03;0.80;;;0.80;;
1577;SDS011;57623;53.608;10.004;2024-02-23T04:16:32;4.63;;;0.93;;
1577;SDS011;57623;53.608;10.004;2024-02-23T04:19:01;0.90;;;0.90;;
1577;SDS011;57623;53.608;10.004;2024-02-23T04:21:29;0.77;;;0.77;;
1577;SDS011;57623;53.608;10.004;2024-02-23T04:23:57;1.70;;;1.00;;
1577;SDS011;57623;53.608;10.004;2024-02-23T04:26:25;0.70;;;0.70;;
1577;SDS011;57623;53.608;10.004;2024-02-23T04:28:53;1.00;;;1.00;;
1577;SDS011;57623;53.608;10.004;2024-02-23T04:31:21;1.93;;;0.83;;
1577;SDS011;57623;53.608;10.004;2024-02-23T04:33:49;1.90;;;0.90;;
1577;SDS011;57623;53.608;10.004;2024-02-23T04:36:20;2.57;;;0.90;;
1577;SDS011;57623;53.608;10.004;2024-02-23T04:38:48;1.97;;;0.80;;
1577;SDS011;57623;53.608;10.004;2024-02-23T04:41:19;1.33;;;0.97;;
1577;SDS011;57623;53.608;10.004;2024-02-23T04:43:48;1.27;;;1.07;;
1577;SDS011;57623;53.608;10.004;2024-02-23T04:46:16;1.50;;;1.00;;
1577;SDS011;57623;53.608;10.004;2024-02-23T04:48:44;2.10;;;1.00;;
1577;SDS011;57623;53.608;10.004;2024-02-23T04:51:12;1.10;;;1.10;;
1577;SDS011;57623;53.608;10.004;2024-02-23T04:53:41;1.20;;;1.10;;
1577;SDS011;57623;53.608;10.004;2024-02-23T04:56:09;1.00;;;1.00;;
1577;SDS011;57623;53.608;10.004;2024-02-23T04:58:37;1.30;;;1.20;;
1577;SDS011;57623;53.608;10.004;2024-02-23T05:01:07;1.30;;;1.20;;
1577;SDS011;57623;53.608;10.004;2024-02-23T05:03:35;1.60;;;1.50;;
1577;SDS011;57623;53.608;10.004;2024-02-23T05:06:04;1.87;;;1.40;;
1577;SDS011;57623;53.608;10.004;2024-02-23T05:08:32;2.80;;;1.40;;
1577;SDS011;57623;53.608;10.004;2024-02-23T05:11:02;2.17;;;1.80;;
1577;SDS011;57623;53.608;10.004;2024-02-23T05:13:30;3.00;;;1.83;;
1577;SDS011;57623;53.608;10.004;2024-02-23T05:15:58;1.60;;;1.50;;
1577;SDS011;57623;53.608;10.004;2024-02-23T05:18:26;2.00;;;1.70;;
1577;SDS011;57623;53.608;10.004;2024-02-23T05:20:54;2.50;;;1.63;;
1577;SDS011;57623;53.608;10.004;2024-02-23T05:23:22;2.20;;;1.90;;
1577;SDS011;57623;53.608;10.004;2024-02-23T05:25:50;3.23;;;1.80;;
1577;SDS011;57623;53.608;10.004;2024-02-23T05:28:19;1.83;;;1.73;;
1577;SDS011;57623;53.608;10.004;2024-02-23T05:30:47;1.57;;;1.47;;
1577;SDS011;57623;53.608;10.004;2024-02-23T05:33:15;3.70;;;2.00;;
1577;SDS011;57623;53.608;10.004;2024-02-23T05:35:46;3.53;;;1.90;;
1577;SDS011;57623;53.608;10.004;2024-02-23T05:38:15;5.37;;;2.10;;
1577;SDS011;57623;53.608;10.004;2024-02-23T05:40:44;2.47;;;1.90;;
1577;SDS011;57623;53.608;10.004;2024-02-23T05:43:12;2.90;;;1.83;;
1577;SDS011;57623;53.608;10.004;2024-02-23T05:45:41;2.73;;;1.93;;
1577;SDS011;57623;53.608;10.004;2024-02-23T05:48:10;2.63;;;2.00;;
1577;SDS011;57623;53.608;10.004;2024-02-23T05:50:39;3.90;;;1.70;;
1577;SDS011;57623;53.608;10.004;2024-02-23T05:53:07;2.80;;;1.60;;
1577;SDS011;57623;53.608;10.004;2024-02-23T05:55:35;2.37;;;1.90;;
1577;SDS011;57623;53.608;10.004;2024-02-23T05:58:03;2.53;;;1.80;;
1577;SDS011;57623;53.608;10.004;2024-02-23T06:00:31;1.73;;;1.60;;
1577;SDS011;57623;53.608;10.004;2024-02-23T06:03:02;1.63;;;1.53;;
1577;SDS011;57623;53.608;10.004;2024-02-23T06:05:30;3.60;;;1.67;;
1577;SDS011;57623;53.608;10.004;2024-02-23T06:07:58;2.10;;;1.63;;
1577;SDS011;57623;53.608;10.004;2024-02-23T06:10:26;2.63;;;1.63;;
1577;SDS011;57623;53.608;10.004;2024-02-23T06:12:54;3.73;;;1.73;;
1577;SDS011;57623;53.608;10.004;2024-02-23T06:15:24;1.60;;;1.50;;
1577;SDS011;57623;53.608;10.004;2024-02-23T06:17:52;1.63;;;1.40;;
1577;SDS011;57623;53.608;10.004;2024-02-23T06:20:21;1.50;;;1.40;;
1577;SDS011;57623;53.608;10.004;2024-02-23T06:22:49;1.53;;;1.40;;
1577;SDS011;57623;53.608;10.004;2024-02-23T06:25:17;2.33;;;2.00;;
1577;SDS011;57623;53.608;10.004;2024-02-23T06:27:45;1.70;;;1.60;;
1577;SDS011;57623;53.608;10.004;2024-02-23T06:30:13;1.73;;;1.63;;
1577;SDS011;57623;53.608;10.004;2024-02-23T06:32:42;3.67;;;1.33;;
1577;SDS011;57623;53.608;10.004;2024-02-23T06:35:12;1.80;;;1.70;;
1577;SDS011;57623;53.608;10.004;2024-02-23T06:37:42;2.17;;;1.70;;
1577;SDS011;57623;53.608;10.004;2024-02-23T06:40:10;1.40;;;1.30;;
1577;SDS011;57623;53.608;10.004;2024-02-23T06:42:38;1.90;;;1.50;;
1577;SDS011;57623;53.608;10.004;2024-02-23T06:45:06;1.90;;;1.67;;
1577;SDS011;57623;53.608;10.004;2024-02-23T06:47:35;2.33;;;2.13;;
1577;SDS011;57623;53.608;10.004;2024-02-23T06:50:03;4.00;;;2.20;;
1577;SDS011;57623;53.608;10.004;2024-02-23T06:52:32;2.10;;;1.93;;
1577;SDS011;57623;53.608;10.004;2024-02-23T06:55:02;2.90;;;2.00;;
1577;SDS011;57623;53.608;10.004;2024-02-23T06:57:30;3.17;;;2.20;;
1577;SDS011;57623;53.608;10.004;2024-02-23T06:59:58;2.53;;;1.80;;
1577;SDS011;57623;53.608;10.004;2024-02-23T07:02:26;3.77;;;1.90;;
1577;SDS011;57623;53.608;10.004;2024-02-23T07:04:57;1.63;;;1.50;;
1577;SDS011;57623;53.608;10.004;2024-02-23T07:07:25;3.90;;;2.00;;
1577;SDS011;57623;53.608;10.004;2024-02-23T07:09:55;2.60;;;2.03;;
1577;SDS011;57623;53.608;10.004;2024-02-23T07:12:24;2.63;;;2.07;;
1577;SDS011;57623;53.608;10.004;2024-02-23T07:14:53;2.03;;;1.70;;
1577;SDS011;57623;53.608;10.004;2024-02-23T07:17:21;2.90;;;2.10;;
1577;SDS011;57623;53.608;10.004;2024-02-23T07:19:49;4.30;;;2.20;;
1577;SDS011;57623;53.608;10.004;2024-02-23T07:22:19;3.57;;;2.30;;
1577;SDS011;57623;53.608;10.004;2024-02-23T07:24:47;3.03;;;2.33;;
1577;SDS011;57623;53.608;10.004;2024-02-23T07:27:15;3.90;;;2.20;;
1577;SDS011;57623;53.608;10.004;2024-02-23T07:29:45;4.40;;;2.63;;
1577;SDS011;57623;53.608;10.004;2024-02-23T07:32:13;3.10;;;2.40;;
1577;SDS011;57623;53.608;10.004;2024-02-23T07:34:41;4.53;;;2.50;;
1577;SDS011;57623;53.608;10.004;2024-02-23T07:37:09;4.03;;;2.20;;
1577;SDS011;57623;53.608;10.004;2024-02-23T07:39:37;4.00;;;2.60;;
1577;SDS011;57623;53.608;10.004;2024-02-23T07:42:05;2.63;;;2.27;;
1577;SDS011;57623;53.608;10.004;2024-02-23T07:44:35;2.73;;;2.10;;
1577;SDS011;57623;53.608;10.004;2024-02-23T07:47:06;2.50;;;2.30;;
1577;SDS011;57623;53.608;10.004;2024-02-23T07:49:34;2.70;;;2.13;;
1577;SDS011;57623;53.608;10.004;2024-02-23T07:52:02;4.97;;;2.07;;
1577;SDS011;57623;53.608;10.004;2024-02-23T07:54:31;4.23;;;2.30;;
1577;SDS011;57623;53.608;10.004;2024-02-23T07:56:59;2.87;;;2.67;;
1577;SDS011;57623;53.608;10.004;2024-02-23T07:59:27;2.97;;;2.20;;
1577;SDS011;57623;53.608;10.004;2024-02-23T08:01:55;2.77;;;2.40;;
1577;SDS011;57623;53.608;10.004;2024-02-23T08:04:25;3.20;;;2.63;;
1577;SDS011;57623;53.608;10.004;2024-02-23T08:06:53;4.87;;;2.83;;
1577;SDS011;57623;53.608;10.004;2024-02-23T08:09:21;5.97;;;2.73;;
1577;SDS011;57623;53.608;10.004;2024-02-23T08:11:50;3.83;;;2.10;;
1577;SDS011;57623;53.608;10.004;2024-02-23T08:14:18;3.17;;;2.10;;
1577;SDS011;57623;53.608;10.004;2024-02-23T08:16:46;5.90;;;2.77;;
1577;SDS011;57623;53.608;10.004;2024-02-23T08:19:16;6.60;;;2.90;;
1577;SDS011;57623;53.608;10.004;2024-02-23T08:21:45;4.40;;;2.33;;
1577;SDS011;57623;53.608;10.004;2024-02-23T08:24:13;3.53;;;2.50;;
1577;SDS011;57623;53.608;10.004;2024-02-23T08:26:41;3.37;;;2.10;;
1577;SDS011;57623;53.608;10.004;2024-02-23T08:29:09;4.93;;;2.00;;
1577;SDS011;57623;53.608;10.004;2024-02-23T08:31:37;4.40;;;2.50;;
1577;SDS011;57623;53.608;10.004;2024-02-23T08:34:08;4.37;;;1.97;;
1577;SDS011;57623;53.608;10.004;2024-02-23T08:36:36;3.03;;;1.50;;
1577;SDS011;57623;53.608;10.004;2024-02-23T08:39:05;4.60;;;2.00;;
1577;SDS011;57623;53.608;10.004;2024-02-23T08:41:35;1.73;;;1.57;;
1577;SDS011;57623;53.608;10.004;2024-02-23T08:44:03;3.57;;;2.57;;
1577;SDS011;57623;53.608;10.004;2024-02-23T08:46:31;2.60;;;2.07;;
1577;SDS011;57623;53.608;10.004;2024-02-23T08:48:59;4.23;;;2.03;;
1577;SDS011;57623;53.608;10.004;2024-02-23T08:51:27;4.73;;;2.37;;
1577;SDS011;57623;53.608;10.004;2024-02-23T08:53:55;3.67;;;2.03;;
1577;SDS011;57623;53.608;10.004;2024-02-23T08:56:30;3.37;;;1.83;;
1577;SDS011;57623;53.608;10.004;2024-02-23T08:58:59;6.60;;;2.50;;
1577;SDS011;57623;53.608;10.004;2024-02-23T09:01:27;4.23;;;1.80;;
1577;SDS011;57623;53.608;10.004;2024-02-23T09:03:55;3.57;;;1.83;;
1577;SDS011;57623;53.608;10.004;2024-02-23T09:06:23;2.50;;;2.00;;
1577;SDS011;57623;53.608;10.004;2024-02-23T09:08:51;2.70;;;2.07;;
1577;SDS011;57623;53.608;10.004;2024-02-23T09:11:19;4.33;;;2.10;;
1577;SDS011;57623;53.608;10.004;2024-02-23T09:13:49;2.37;;;1.57;;
1577;SDS011;57623;53.608;10.004;2024-02-23T09:16:17;2.90;;;1.93;;
1577;SDS011;57623;53.608;10.004;2024-02-23T09:18:45;4.13;;;2.00;;
1577;SDS011;57623;53.608;10.004;2024-02-23T09:21:13;2.60;;;1.70;;
1577;SDS011;57623;53.608;10.004;2024-02-23T09:23:41;4.67;;;2.40;;
1577;SDS011;57623;53.608;10.004;2024-02-23T09:26:10;2.97;;;1.70;;
1577;SDS011;57623;53.608;10.004;2024-02-23T09:28:38;4.80;;;2.50;;
1577;SDS011;57623;53.608;10.004;2024-02-23T09:31:09;2.67;;;1.90;;
1577;SDS011;57623;53.608;10.004;2024-02-23T09:33:37;2.87;;;1.90;;
1577;SDS011;57623;53.608;10.004;2024-02-23T09:36:05;4.50;;;1.50;;
1577;SDS011;57623;53.608;10.004;2024-02-23T09:38:33;3.07;;;1.73;;
1577;SDS011;57623;53.608;10.004;2024-02-23T09:41:02;2.37;;;2.00;;
1577;SDS011;57623;53.608;10.004;2024-02-23T09:43:31;4.97;;;2.03;;
1577;SDS011;57623;53.608;10.004;2024-02-23T09:46:01;2.80;;;1.70;;
1577;SDS011;57623;53.608;10.004;2024-02-23T09:48:30;3.33;;;1.90;;
1577;SDS011;57623;53.608;10.004;2024-02-23T09:51:01;3.60;;;1.77;;
1577;SDS011;57623;53.608;10.004;2024-02-23T09:53:32;3.63;;;1.90;;
1577;SDS011;57623;53.608;10.004;2024-02-23T09:56:04;2.33;;;1.60;;
1577;SDS011;57623;53.608;10.004;2024-02-23T09:58:32;2.63;;;1.80;;
1577;SDS011;57623;53.608;10.004;2024-02-23T10:01:03;2.73;;;1.87;;
1577;SDS011;57623;53.608;10.004;2024-02-23T10:03:33;3.63;;;1.87;;
1577;SDS011;57623;53.608;10.004;2024-02-23T10:06:00;4.20;;;2.30;;
1577;SDS011;57623;53.608;10.004;2024-02-23T10:08:29;4.50;;;1.80;;
1577;SDS011;57623;53.608;10.004;2024-02-23T10:10:57;2.90;;;1.90;;
1577;SDS011;57623;53.608;10.004;2024-02-23T10:13:25;3.33;;;2.23;;
1577;SDS011;57623;53.608;10.004;2024-02-23T10:15:53;7.20;;;3.00;;
1577;SDS011;57623;53.608;10.004;2024-02-23T10:18:41;5.37;;;2.30;;
1577;SDS011;57623;53.608;10.004;2024-02-23T10:21:09;3.00;;;2.10;;
1577;SDS011;57623;53.608;10.004;2024-02-23T10:23:38;2.53;;;2.30;;
1577;SDS011;57623;53.608;10.004;2024-02-23T10:26:06;6.13;;;2.43;;
1577;SDS011;57623;53.608;10.004;2024-02-23T10:28:35;3.63;;;2.00;;
1577;SDS011;57623;53.608;10.004;2024-02-23T10:31:05;4.30;;;2.13;;
1577;SDS011;57623;53.608;10.004;2024-02-23T10:33:38;3.77;;;2.80;;
1577;SDS011;57623;53.608;10.004;2024-02-23T10:36:09;4.13;;;2.07;;
1577;SDS011;57623;53.608;10.004;2024-02-23T10:38:42;3.70;;;1.80;;
1577;SDS011;57623;53.608;10.004;2024-02-23T10:41:13;4.83;;;2.30;;
1577;SDS011;57623;53.608;10.004;2024-02-23T10:43:45;4.93;;;2.20;;
1577;SDS011;57623;53.608;10.004;2024-02-23T10:46:15;3.63;;;1.93;;
1577;SDS011;57623;53.608;10.004;2024-02-23T10:48:44;3.53;;;2.00;;
1577;SDS011;57623;53.608;10.004;2024-02-23T10:51:13;3.03;;;1.90;;
1577;SDS011;57623;53.608;10.004;2024-02-23T10:53:46;4.17;;;1.87;;
1577;SDS011;57623;53.608;10.004;2024-02-23T10:56:15;4.07;;;2.40;;
1577;SDS011;57623;53.608;10.004;2024-02-23T10:58:43;6.37;;;2.20;;
1577;SDS011;57623;53.608;10.004;2024-02-23T11:01:12;3.10;;;1.87;;
1577;SDS011;57623;53.608;10.004;2024-02-23T11:03:42;2.60;;;1.90;;
1577;SDS011;57623;53.608;10.004;2024-02-23T11:06:15;3.20;;;1.80;;
1577;SDS011;57623;53.608;10.004;2024-02-23T11:08:48;4.37;;;1.93;;
1577;SDS011;57623;53.608;10.004;2024-02-23T11:11:17;4.50;;;1.63;;
1577;SDS011;57623;53.608;10.004;2024-02-23T11:13:45;4.10;;;1.63;;
1577;SDS011;57623;53.608;10.004;2024-02-23T11:16:20;2.23;;;1.50;;
1577;SDS011;57623;53.608;10.004;2024-02-23T11:18:50;3.87;;;1.83;;
1577;SDS011;57623;53.608;10.004;2024-02-23T11:21:35;2.23;;;1.80;;
1577;SDS011;57623;53.608;10.004;2024-02-23T11:24:04;2.20;;;1.80;;
1577;SDS011;57623;53.608;10.004;2024-02-23T11:26:33;2.70;;;1.43;;
1577;SDS011;57623;53.608;10.004;2024-02-23T11:29:09;3.00;;;1.70;;
1577;SDS011;57623;53.608;10.004;2024-02-23T11:31:43;1.37;;;1.27;;
1577;SDS011;57623;53.608;10.004;2024-02-23T11:34:13;2.60;;;1.60;;
1577;SDS011;57623;53.608;10.004;2024-02-23T11:36:42;3.73;;;1.40;;
1577;SDS011;57623;53.608;10.004;2024-02-23T11:39:10;4.13;;;1.63;;
1577;SDS011;57623;53.608;10.004;2024-02-23T11:41:39;3.00;;;1.40;;
1577;SDS011;57623;53.608;10.004;2024-02-23T11:44:07;4.80;;;1.60;;
1577;SDS011;57623;53.608;10.004;2024-02-23T11:46:36;2.40;;;1.20;;
1577;SDS011;57623;53.608;10.004;2024-02-23T11:49:04;3.50;;;1.30;;
1577;SDS011;57623;53.608;10.004;2024-02-23T11:51:32;2.70;;;1.30;;
1577;SDS011;57623;53.608;10.004;2024-02-23T11:54:02;5.73;;;2.27;;
1577;SDS011;57623;53.608;10.004;2024-02-23T11:56:30;2.60;;;1.50;;
1577;SDS011;57623;53.608;10.004;2024-02-23T11:58:58;7.70;;;1.60;;
1577;SDS011;57623;53.608;10.004;2024-02-23T12:01:28;2.73;;;1.73;;
1577;SDS011;57623;53.608;10.004;2024-02-23T12:03:58;2.57;;;1.20;;
1577;SDS011;57623;53.608;10.004;2024-02-23T12:06:26;2.50;;;1.83;;
1577;SDS011;57623;53.608;10.004;2024-02-23T12:08:58;1.80;;;1.40;;
1577;SDS011;57623;53.608;10.004;2024-02-23T12:11:28;1.90;;;1.37;;
1577;SDS011;57623;53.608;10.004;2024-02-23T12:13:57;2.93;;;1.53;;
1577;SDS011;57623;53.608;10.004;2024-02-23T12:16:26;1.87;;;1.47;;
1577;SDS011;57623;53.608;10.004;2024-02-23T12:18:54;1.37;;;1.27;;
1577;SDS011;57623;53.608;10.004;2024-02-23T12:21:23;2.07;;;1.33;;
1577;SDS011;57623;53.608;10.004;2024-02-23T12:23:51;2.50;;;1.40;;
1577;SDS011;57623;53.608;10.004;2024-02-23T12:26:20;2.00;;;1.20;;
1577;SDS011;57623;53.608;10.004;2024-02-23T12:28:49;5.20;;;1.70;;
1577;SDS011;57623;53.608;10.004;2024-02-23T12:31:23;2.40;;;1.47;;
1577;SDS011;57623;53.608;10.004;2024-02-23T12:33:52;3.13;;;1.37;;
1577;SDS011;57623;53.608;10.004;2024-02-23T12:36:21;2.73;;;1.40;;
1577;SDS011;57623;53.608;10.004;2024-02-23T12:38:50;2.20;;;1.40;;
1577;SDS011;57623;53.608;10.004;2024-02-23T12:41:18;2.13;;;1.50;;
1577;SDS011;57623;53.608;10.004;2024-02-23T12:43:47;3.20;;;1.50;;
1577;SDS011;57623;53.608;10.004;2024-02-23T12:46:16;2.90;;;2.67;;
1577;SDS011;57623;53.608;10.004;2024-02-23T12:48:44;1.97;;;1.50;;
1577;SDS011;57623;53.608;10.004;2024-02-23T12:51:12;1.50;;;1.40;;
1577;SDS011;57623;53.608;10.004;2024-02-23T12:53:40;3.40;;;1.20;;
1577;SDS011;57623;53.608;10.004;2024-02-23T12:56:11;1.67;;;1.30;;
1577;SDS011;57623;53.608;10.004;2024-02-23T12:58:40;1.30;;;1.20;;
1577;SDS011;57623;53.608;10.004;2024-02-23T13:01:10;1.33;;;1.13;;
1577;SDS011;57623;53.608;10.004;2024-02-23T13:03:39;1.73;;;1.63;;
1577;SDS011;57623;53.608;10.004;2024-02-23T13:06:08;5.40;;;1.40;;
1577;SDS011;57623;53.608;10.004;2024-02-23T13:08:36;1.77;;;1.33;;
1577;SDS011;57623;53.608;10.004;2024-02-23T13:11:06;1.77;;;1.50;;
1577;SDS011;57623;53.608;10.004;2024-02-23T13:13:35;1.93;;;1.20;;
1577;SDS011;57623;53.608;10.004;2024-02-23T13:16:05;1.53;;;1.20;;
1577;SDS011;57623;53.608;10.004;2024-02-23T13:18:34;2.17;;;1.37;;
1577;SDS011;57623;53.608;10.004;2024-02-23T13:21:04;2.10;;;1.10;;
1577;SDS011;57623;53.608;10.004;2024-02-23T13:23:32;1.80;;;1.40;;
1577;SDS011;57623;53.608;10.004;2024-02-23T13:26:00;2.20;;;1.37;;
1577;SDS011;57623;53.608;10.004;2024-02-23T13:28:29;4.07;;;1.23;;
1577;SDS011;57623;53.608;10.004;2024-02-23T13:30:57;1.27;;;1.17;;
1577;SDS011;57623;53.608;10.004;2024-02-23T13:33:25;1.83;;;1.33;;
1577;SDS011;57623;53.608;10.004;2024-02-23T13:35:53;1.97;;;1.10;;
1577;SDS011;57623;53.608;10.004;2024-02-23T13:38:23;1.27;;;0.93;;
1577;SDS011;57623;53.608;10.004;2024-02-23T13:40:51;2.27;;;1.10;;
1577;SDS011;57623;53.608;10.004;2024-02-23T13:43:19;3.00;;;1.60;;
1577;SDS011;57623;53.608;10.004;2024-02-23T13:45:48;1.17;;;0.80;;
1577;SDS011;57623;53.608;10.004;2024-02-23T13:48:17;1.57;;;1.30;;
1577;SDS011;57623;53.608;10.004;2024-02-23T13:50:46;1.93;;;1.20;;
1577;SDS011;57623;53.608;10.004;2024-02-23T13:53:15;1.80;;;1.20;;
1577;SDS011;57623;53.608;10.004;2024-02-23T13:55:44;1.80;;;1.00;;
1577;SDS011;57623;53.608;10.004;2024-02-23T13:58:12;2.27;;;1.20;;
1577;SDS011;57623;53.608;10.004;2024-02-23T14:00:40;1.53;;;1.20;;
1577;SDS011;57623;53.608;10.004;2024-02-23T14:03:08;1.87;;;1.40;;
1577;SDS011;57623;53.608;10.004;2024-02-23T14:05:44;1.73;;;1.20;;
1577;SDS011;57623;53.608;10.004;2024-02-23T14:08:13;1.63;;;0.83;;
1577;SDS011;57623;53.608;10.004;2024-02-23T14:10:41;2.10;;;1.10;;
1577;SDS011;57623;53.608;10.004;2024-02-23T14:13:11;5.10;;;1.77;;
1577;SDS011;57623;53.608;10.004;2024-02-23T14:15:39;1.60;;;0.87;;
1577;SDS011;57623;53.608;10.004;2024-02-23T14:18:07;1.67;;;1.20;;
1577;SDS011;57623;53.608;10.004;2024-02-23T14:20:35;2.07;;;1.30;;
1577;SDS011;57623;53.608;10.004;2024-02-23T14:23:04;2.63;;;1.20;;
1577;SDS011;57623;53.608;10.004;2024-02-23T14:25:32;2.43;;;1.20;;
1577;SDS011;57623;53.608;10.004;2024-02-23T14:28:00;2.60;;;0.90;;
1577;SDS011;57623;53.608;10.004;2024-02-23T14:30:29;1.23;;;1.00;;
1577;SDS011;57623;53.608;10.004;2024-02-23T14:32:57;3.17;;;1.20;;
1577;SDS011;57623;53.608;10.004;2024-02-23T14:35:25;2.67;;;1.53;;
1577;SDS011;57623;53.608;10.004;2024-02-23T14:37:53;4.30;;;1.43;;
1577;SDS011;57623;53.608;10.004;2024-02-23T14:40:21;1.27;;;1.10;;
1577;SDS011;57623;53.608;10.004;2024-02-23T14:42:49;2.60;;;1.40;;
1577;SDS011;57623;53.608;10.004;2024-02-23T14:45:17;2.00;;;1.83;;
1577;SDS011;57623;53.608;10.004;2024-02-23T14:47:47;1.87;;;1.47;;
1577;SDS011;57623;53.608;10.004;2024-02-23T14:50:15;1.50;;;1.40;;
1577;SDS011;57623;53.608;10.004;2024-02-23T14:52:43;1.93;;;1.37;;
1577;SDS011;57623;53.608;10.004;2024-02-23T14:55:11;1.30;;;1.10;;
1577;SDS011;57623;53.608;10.004;2024-02-23T14:57:40;2.10;;;1.00;;